Boynton Beach, FL (33435)

12:22 PM EDT on July 23, 2016 (GMT -0400)
Forest Park | | Change Station

Elev 15 ft 26.52 °N, 80.07 °W | Updated 6 seconds ago

Scattered Clouds
Scattered Clouds
92.8 °F
Feels Like 108 °F
N
4.6
Wind Variable Wind from ENE
Gusts 4.6 mph

Today
High -- | Low -- °F
--% Chance of Precip.
Yesterday
High -- | Low -- °F
Precip. -- in
Pressure 30.06 in
Visibility 10.0 miles
Clouds Scattered Clouds 3500 ft
Scattered Clouds 25000 ft
Heat Index 108 °F
Dew Point 78 °F
Humidity 62%
Rainfall 0.00 in
Snow Depth Not available.
6:41 AM 8:12 PM
Waning Gibbous, 84% visible
METAR KPBI 231553Z VRB04KT 10SM SCT035 SCT250 31/23 A3005 RMK AO2 SLP177 T03060233 $
Pressure 30.06 in
Visibility 10.0 miles
Clouds Scattered Clouds 3500 ft
Scattered Clouds 25000 ft
Heat Index 108 °F
Dew Point 78 °F
Humidity 62%
Rainfall 0.00 in
Snow Depth Not available.
6:41 AM 8:12 PM
Waning Gibbous, 84% visible
METAR KPBI 231553Z VRB04KT 10SM SCT035 SCT250 31/23 A3005 RMK AO2 SLP177 T03060233 $

10-Day Weather Forecast

Almanac

Astronomy

Jul. 23, 2016 Rise Set
Actual Time
Civil Twilight
Nautical Twilight
Astronomical Twilight
Moon
Length of Visible Light
Length of Day
Tomorrow will be .
, % of the Moon is Illuminated

Today's Extremes

State Highs State Lows

Community

WunderPhotos

Upload Photos

1,926,858 photos uploaded!

WunderBlog® & News

Nearby

Air Quality

  Air Quality AQ Index Pollutant
Not available.

Snow Depth

Station Depth Elevation

Earthquake Activity

City Distance Mag. Time & Date
Minimum magnitude displayed is 2.5.

Coastal Water Temperatures

Place Temperature

Stations

Nearby Weather Stations

Station Location Temp. Windchill Dew Point Humidity Wind Precip. Elev Updated Type
                   

Watches & Warnings

There are currently no watches in effect.